Time;durP1;ratioP1;P1;durP2;ratioP2;P2;SDS_P1;SDS_P2;PMS_P1;PMS_P2;Temp;Humidity;BMP_temperature;BMP_pressure;BME280_temperature;BME280_humidity;BME280_pressure;Samples;Min_cycle;Max_cycle;Signal;HPM_P1;HPM_P2
2022/12/04 00:02:02;;;;;;;;;;;16.50;65.90;;;;;;10418892;28;89951;-66
2022/12/04 00:07:03;;;;;;;;;;;16.40;66.00;;;;;;10418909;28;90065;-65
2022/12/04 00:12:05;;;;;;;;;;;16.40;66.10;;;;;;10418185;28;90867;-66
2022/12/04 00:17:07;;;;;;;;;;;16.40;66.00;;;;;;10418533;28;89031;-66
2022/12/04 00:22:09;;;;;;;;;;;16.30;65.70;;;;;;10418178;28;89410;-66
2022/12/04 00:27:10;;;;;;;;;;;16.30;65.50;;;;;;10418635;27;90093;-66
2022/12/04 00:32:12;;;;;;;;;;;16.30;65.50;;;;;;10417706;28;89025;-66
2022/12/04 00:37:14;;;;;;;;;;;16.30;65.50;;;;;;10418638;28;89089;-66
2022/12/04 00:42:16;;;;;;;;;;;16.30;65.40;;;;;;10417820;28;88519;-66
2022/12/04 00:47:18;;;;;;;;;;;16.30;65.50;;;;;;10418613;28;88877;-65
2022/12/04 00:52:19;;;;;;;;;;;16.20;65.60;;;;;;10418361;28;89428;-65
2022/12/04 00:57:21;;;;;;;;;;;16.20;65.70;;;;;;10417886;28;89818;-66
2022/12/04 01:02:23;;;;;;;;;;;16.20;65.70;;;;;;10415982;28;89741;-66
2022/12/04 01:07:25;;;;;;;;;;;16.30;65.70;;;;;;10417729;28;90080;-66
2022/12/04 01:12:26;;;;;;;;;;;16.30;65.70;;;;;;10416910;28;88233;-66
2022/12/04 01:17:28;;;;;;;;;;;16.30;65.60;;;;;;10417070;28;88890;-66
2022/12/04 01:22:30;;;;;;;;;;;16.30;65.60;;;;;;10416591;28;88989;-67
2022/12/04 01:27:31;;;;;;;;;;;16.20;65.50;;;;;;10415920;28;89073;-66
2022/12/04 01:32:33;;;;;;;;;;;16.20;65.60;;;;;;10416924;28;89077;-66
2022/12/04 01:37:35;;;;;;;;;;;16.20;65.50;;;;;;10416976;28;89300;-66
2022/12/04 01:42:36;;;;;;;;;;;16.20;65.00;;;;;;10416513;28;90265;-65
2022/12/04 01:47:38;;;;;;;;;;;16.10;64.50;;;;;;10416032;28;88075;-66
2022/12/04 01:52:40;;;;;;;;;;;16.10;64.50;;;;;;10414290;28;90044;-67
2022/12/04 01:57:41;;;;;;;;;;;16.10;65.70;;;;;;10415825;28;88933;-66
2022/12/04 02:02:44;;;;;;;;;;;16.00;64.70;;;;;;10795625;22;89597;-66
2022/12/04 02:07:47;;;;;;;;;;;16.00;64.70;;;;;;10332220;28;88890;-66
2022/12/04 02:13:01;;;;;;;;;;;16.00;64.80;;;;;;10333080;28;88818;-66
2022/12/04 02:18:08;;;;;;;;;;;16.00;64.80;;;;;;10333317;28;89076;-66
2022/12/04 02:23:16;;;;;;;;;;;15.90;64.90;;;;;;10333272;28;90030;-66
2022/12/04 02:28:30;;;;;;;;;;;16.00;65.10;;;;;;10315137;28;88285;-66
2022/12/04 02:33:35;;;;;;;;;;;16.00;65.00;;;;;;10332636;28;90029;-66
2022/12/04 02:38:39;;;;;;;;;;;16.00;65.00;;;;;;10331954;28;89099;-66
2022/12/04 02:43:43;;;;;;;;;;;16.00;64.90;;;;;;10329035;28;90392;-66
2022/12/04 02:48:47;;;;;;;;;;;16.10;64.90;;;;;;10330679;28;88949;-66
2022/12/04 02:53:51;;;;;;;;;;;16.00;64.80;;;;;;10338386;28;89083;-66
2022/12/04 02:58:55;;;;;;;;;;;16.00;64.70;;;;;;10339298;28;88876;-66
2022/12/04 03:04:03;;;;;;;;;;;16.00;64.70;;;;;;10337490;28;89060;-66
2022/12/04 03:09:09;;;;;;;;;;;16.00;64.70;;;;;;10336482;28;89048;-66
2022/12/04 03:14:16;;;;;;;;;;;16.00;64.60;;;;;;10337974;28;88103;-66
2022/12/04 03:19:20;;;;;;;;;;;15.90;64.30;;;;;;10339829;28;89188;-66
2022/12/04 03:24:23;;;;;;;;;;;15.80;64.10;;;;;;10338474;28;88150;-66
2022/12/04 03:29:30;;;;;;;;;;;15.80;64.00;;;;;;10337482;28;90366;-66
2022/12/04 03:34:34;;;;;;;;;;;15.80;63.80;;;;;;10337258;28;90871;-66
2022/12/04 03:39:56;;;;;;;;;;;15.80;64.30;;;;;;10337445;28;88998;-66
2022/12/04 03:45:03;;;;;;;;;;;15.80;64.60;;;;;;10337089;28;90537;-66
2022/12/04 03:50:14;;;;;;;;;;;15.90;64.50;;;;;;10337683;28;89024;-66
2022/12/04 03:55:42;;;;;;;;;;;15.90;64.30;;;;;;10338100;28;90101;-66
2022/12/04 04:00:44;;;;;;;;;;;16.00;64.10;;;;;;10335129;28;89079;-67
2022/12/04 04:05:47;;;;;;;;;;;16.00;64.00;;;;;;10336240;28;88981;-66
2022/12/04 04:10:51;;;;;;;;;;;16.00;63.90;;;;;;10319032;28;87431;-66
2022/12/04 04:26:40;;;;;;;;;;;16.00;63.80;;;;;;10335425;28;90057;-66
2022/12/04 04:31:47;;;;;;;;;;;15.90;63.80;;;;;;10317925;28;89977;-66
2022/12/04 04:36:51;;;;;;;;;;;15.90;64.00;;;;;;10335353;28;90128;-66
2022/12/04 04:41:55;;;;;;;;;;;15.90;64.10;;;;;;10335790;28;89020;-66
2022/12/04 04:47:00;;;;;;;;;;;15.90;64.10;;;;;;10317596;28;90038;-67
2022/12/04 04:52:02;;;;;;;;;;;15.80;64.20;;;;;;10335270;28;89048;-66
2022/12/04 04:57:04;;;;;;;;;;;15.80;63.80;;;;;;10335293;28;90038;-66
2022/12/04 05:02:05;;;;;;;;;;;15.80;63.70;;;;;;10335622;28;88303;-66
2022/12/04 05:07:07;;;;;;;;;;;15.70;63.60;;;;;;10334815;28;90608;-67
2022/12/04 05:12:09;;;;;;;;;;;15.70;63.70;;;;;;10335025;28;90069;-67
2022/12/04 05:17:10;;;;;;;;;;;15.60;63.40;;;;;;10333343;28;89781;-66
2022/12/04 05:22:13;;;;;;;;;;;15.60;64.10;;;;;;10334684;28;90421;-66
2022/12/04 05:27:15;;;;;;;;;;;15.70;64.20;;;;;;10334587;28;89511;-66
2022/12/04 05:32:17;;;;;;;;;;;15.70;64.00;;;;;;10334731;28;90202;-66
2022/12/04 05:37:19;;;;;;;;;;;15.80;64.80;;;;;;10334537;28;90026;-66
2022/12/04 05:42:21;;;;;;;;;;;16.00;63.60;;;;;;10334203;28;89145;-66
2022/12/04 05:47:22;;;;;;;;;;;16.10;63.40;;;;;;10333158;28;88660;-66
2022/12/04 05:52:24;;;;;;;;;;;16.20;63.20;;;;;;10334711;28;88633;-66
2022/12/04 05:57:26;;;;;;;;;;;16.40;62.90;;;;;;10333178;28;89114;-66
2022/12/04 06:02:32;;;;;;;;;;;16.60;62.50;;;;;;10330787;28;89036;-66
2022/12/04 06:07:34;;;;;;;;;;;16.80;62.00;;;;;;10329871;28;90668;-66
2022/12/04 06:12:36;;;;;;;;;;;17.00;61.70;;;;;;10332403;28;89117;-66
2022/12/04 06:17:37;;;;;;;;;;;17.10;61.60;;;;;;10314785;28;89923;-66
2022/12/04 06:22:39;;;;;;;;;;;17.10;61.30;;;;;;10332350;28;89781;-66
2022/12/04 06:27:42;;;;;;;;;;;17.00;61.40;;;;;;10318132;28;88169;-66
2022/12/04 06:32:44;;;;;;;;;;;17.00;61.30;;;;;;10339081;28;89733;-66
2022/12/04 06:37:46;;;;;;;;;;;17.00;61.50;;;;;;10338227;28;89079;-66
2022/12/04 06:42:48;;;;;;;;;;;17.10;61.60;;;;;;10322153;28;88688;-66
2022/12/04 06:47:50;;;;;;;;;;;17.20;61.50;;;;;;10320156;28;89137;-66
2022/12/04 06:52:51;;;;;;;;;;;17.30;61.20;;;;;;10338302;28;89138;-66
2022/12/04 06:57:53;;;;;;;;;;;17.30;61.10;;;;;;10338179;28;90683;-66
2022/12/04 07:02:55;;;;;;;;;;;17.30;61.20;;;;;;10321140;28;90259;-66
2022/12/04 07:07:57;;;;;;;;;;;17.30;61.40;;;;;;10320944;28;90053;-67
2022/12/04 07:12:58;;;;;;;;;;;17.30;61.40;;;;;;10338046;28;90018;-66
2022/12/04 07:18:00;;;;;;;;;;;17.40;61.40;;;;;;10339209;28;88836;-66
2022/12/04 07:23:02;;;;;;;;;;;17.40;61.40;;;;;;10337925;28;89088;-66
2022/12/04 07:28:08;;;;;;;;;;;17.30;61.50;;;;;;10337357;28;89217;-66
2022/12/04 07:33:09;;;;;;;;;;;17.30;62.70;;;;;;10338657;28;88290;-66
2022/12/04 07:38:11;;;;;;;;;;;17.30;61.60;;;;;;10336551;28;89457;-66
2022/12/04 07:43:13;;;;;;;;;;;17.30;61.40;;;;;;10320089;28;90160;-65
2022/12/04 07:48:15;;;;;;;;;;;17.30;61.50;;;;;;10336485;28;90750;-65
2022/12/04 07:53:17;;;;;;;;;;;17.20;61.70;;;;;;10336791;28;89023;-64
2022/12/04 07:58:19;;;;;;;;;;;17.00;63.10;;;;;;10336546;28;90411;-64
2022/12/04 08:03:20;;;;;;;;;;;17.00;63.50;;;;;;10334439;28;89003;-65
2022/12/04 08:08:22;;;;;;;;;;;16.90;63.50;;;;;;10336331;28;89004;-65
2022/12/04 08:13:24;;;;;;;;;;;16.80;63.60;;;;;;10335311;28;90143;-65
2022/12/04 08:18:26;;;;;;;;;;;16.70;63.90;;;;;;10336580;28;90012;-65
2022/12/04 08:23:28;;;;;;;;;;;16.60;64.10;;;;;;10336597;28;88347;-64
2022/12/04 08:28:30;;;;;;;;;;;16.60;64.30;;;;;;10335437;28;88785;-64
2022/12/04 08:33:32;;;;;;;;;;;16.50;64.60;;;;;;10335794;28;88930;-65
2022/12/04 08:38:34;;;;;;;;;;;16.50;64.70;;;;;;10334352;28;89772;-64
2022/12/04 08:43:36;;;;;;;;;;;16.40;64.70;;;;;;10335529;28;89039;-64
2022/12/04 08:48:38;;;;;;;;;;;16.30;64.50;;;;;;10334162;28;88345;-65
2022/12/04 08:53:39;;;;;;;;;;;16.30;64.40;;;;;;10335054;28;89042;-64
2022/12/04 08:58:41;;;;;;;;;;;16.20;64.30;;;;;;10318106;28;90035;-65
2022/12/04 09:03:43;;;;;;;;;;;16.20;64.50;;;;;;10334272;28;89024;-65
2022/12/04 09:08:45;;;;;;;;;;;16.20;64.50;;;;;;10335029;28;89024;-64
2022/12/04 09:13:47;;;;;;;;;;;16.30;64.40;;;;;;10335099;28;87955;-64
2022/12/04 09:18:49;;;;;;;;;;;16.30;64.20;;;;;;10335193;28;90042;-65
2022/12/04 09:23:51;;;;;;;;;;;16.40;63.90;;;;;;10334145;28;88921;-65
2022/12/04 09:28:53;;;;;;;;;;;16.40;63.70;;;;;;10333007;28;88880;-64
2022/12/04 09:33:56;;;;;;;;;;;16.40;63.60;;;;;;10334050;28;88959;-65
2022/12/04 09:38:58;;;;;;;;;;;16.30;63.60;;;;;;10333922;28;88478;-64
2022/12/04 09:44:02;;;;;;;;;;;16.30;63.60;;;;;;10334439;28;89303;-64
2022/12/04 09:49:24;;;;;;;;;;;16.30;63.50;;;;;;10333108;28;89233;-64
2022/12/04 09:54:31;;;;;;;;;;;16.40;63.50;;;;;;10334034;28;89416;-65
2022/12/04 09:59:33;;;;;;;;;;;16.40;63.50;;;;;;10334340;28;90272;-65
2022/12/04 10:04:35;;;;;;;;;;;16.30;63.40;;;;;;10341702;28;88220;-64
2022/12/04 10:09:42;;;;;;;;;;;16.30;63.40;;;;;;10340664;28;90138;-65
2022/12/04 10:15:07;;;;;;;;;;;16.30;63.60;;;;;;10341720;28;90103;-64
2022/12/04 10:20:27;;;;;;;;;;;16.30;63.50;;;;;;10301650;28;89643;-64
2022/12/04 10:25:31;;;;;;;;;;;16.30;63.40;;;;;;10340883;28;88836;-64
2022/12/04 10:30:34;;;;;;;;;;;16.20;64.40;;;;;;10339458;28;90034;-64
2022/12/04 10:35:36;;;;;;;;;;;16.20;63.50;;;;;;10340689;28;88631;-65
2022/12/04 10:40:58;;;;;;;;;;;16.20;63.30;;;;;;10339636;28;88508;-65
2022/12/04 10:46:00;;;;;;;;;;;16.20;63.50;;;;;;10339383;28;91639;-66
2022/12/04 10:51:02;;;;;;;;;;;16.20;63.50;;;;;;10340092;28;90040;-65
2022/12/04 10:56:11;;;;;;;;;;;16.40;63.30;;;;;;10339571;28;89104;-65
2022/12/04 11:01:14;;;;;;;;;;;16.60;63.00;;;;;;10339506;28;88754;-65
2022/12/04 11:06:22;;;;;;;;;;;16.80;62.60;;;;;;10338143;28;88258;-66
2022/12/04 11:11:26;;;;;;;;;;;17.00;62.00;;;;;;10337671;28;89609;-65
2022/12/04 11:16:30;;;;;;;;;;;17.10;61.60;;;;;;10338866;28;90068;-66
2022/12/04 11:21:32;;;;;;;;;;;17.10;61.30;;;;;;10339015;28;88852;-65
2022/12/04 11:26:35;;;;;;;;;;;17.10;61.40;;;;;;10338311;28;88550;-66
2022/12/04 11:31:37;;;;;;;;;;;17.10;61.40;;;;;;10337991;28;88846;-65
2022/12/04 11:36:39;;;;;;;;;;;17.10;61.50;;;;;;10338450;28;89992;-65
2022/12/04 11:41:41;;;;;;;;;;;17.20;61.50;;;;;;10337961;28;90005;-66
2022/12/04 11:46:50;;;;;;;;;;;17.30;61.30;;;;;;10338502;28;88267;-64
2022/12/04 11:51:57;;;;;;;;;;;17.30;61.40;;;;;;10338059;28;90119;-68
2022/12/04 11:57:05;;;;;;;;;;;17.30;64.30;;;;;;10337998;28;90143;-65
2022/12/04 12:02:22;;;;;;;;;;;17.30;65.00;;;;;;10336980;28;90696;-67
2022/12/04 12:07:43;;;;;;;;;;;17.40;63.70;;;;;;10336449;28;90157;-66
2022/12/04 12:12:53;;;;;;;;;;;17.50;63.40;;;;;;10333163;28;90204;-65
2022/12/04 12:18:13;;;;;;;;;;;17.50;63.00;;;;;;10332686;28;89451;-64
2022/12/04 12:23:32;;;;;;;;;;;17.50;62.80;;;;;;10335895;28;90047;-63
2022/12/04 12:28:52;;;;;;;;;;;17.40;62.90;;;;;;10335905;28;89501;-64
2022/12/04 12:34:00;;;;;;;;;;;17.30;62.90;;;;;;10335870;28;88838;-64
2022/12/04 12:39:03;;;;;;;;;;;17.30;63.00;;;;;;10319362;28;89049;-64
2022/12/04 12:44:08;;;;;;;;;;;17.20;63.10;;;;;;10336195;28;88970;-64
2022/12/04 12:49:14;;;;;;;;;;;17.10;64.20;;;;;;10334917;28;89116;-65
2022/12/04 12:54:18;;;;;;;;;;;17.00;63.40;;;;;;10334570;28;89100;-65
2022/12/04 12:59:23;;;;;;;;;;;17.00;63.50;;;;;;10316796;28;89302;-63
2022/12/04 13:04:31;;;;;;;;;;;17.10;63.60;;;;;;10334776;28;90399;-68
2022/12/04 13:09:34;;;;;;;;;;;17.20;63.50;;;;;;10333568;28;89042;-65
2022/12/04 13:14:35;;;;;;;;;;;17.20;63.30;;;;;;10333807;28;89126;-67
2022/12/04 13:19:43;;;;;;;;;;;17.20;63.30;;;;;;10334168;28;89038;-65
2022/12/04 13:25:03;;;;;;;;;;;17.10;63.00;;;;;;10335319;28;89660;-65
2022/12/04 13:30:21;;;;;;;;;;;17.20;63.10;;;;;;10334584;28;88573;-65
2022/12/04 13:35:26;;;;;;;;;;;17.20;63.00;;;;;;10333545;28;88424;-65
2022/12/04 13:40:28;;;;;;;;;;;17.20;63.20;;;;;;10333740;28;90053;-65
2022/12/04 13:45:32;;;;;;;;;;;17.00;63.30;;;;;;10327630;28;89591;-65
2022/12/04 13:50:37;;;;;;;;;;;17.00;63.50;;;;;;10313123;28;109474;-65
2022/12/04 13:55:39;;;;;;;;;;;16.90;63.70;;;;;;10310933;28;90058;-65
2022/12/04 14:00:41;;;;;;;;;;;16.80;63.70;;;;;;10328994;28;89070;-65
2022/12/04 14:05:43;;;;;;;;;;;16.70;63.70;;;;;;10331047;28;90027;-65
2022/12/04 14:10:55;;;;;;;;;;;16.60;63.80;;;;;;10333204;28;89881;-65
2022/12/04 14:16:01;;;;;;;;;;;16.60;63.90;;;;;;10314687;28;89755;-65
2022/12/04 14:21:04;;;;;;;;;;;16.50;64.00;;;;;;10332857;28;89638;-65
2022/12/04 14:26:19;;;;;;;;;;;16.50;64.10;;;;;;10332596;28;90193;-65
2022/12/04 14:31:21;;;;;;;;;;;16.40;63.80;;;;;;10332849;28;89024;-65
2022/12/04 14:36:24;;;;;;;;;;;16.30;63.80;;;;;;10331619;28;90234;-64
2022/12/04 14:41:26;;;;;;;;;;;16.30;63.80;;;;;;10332032;28;89376;-65
2022/12/04 14:46:43;;;;;;;;;;;16.20;63.90;;;;;;10314848;28;89036;-65
2022/12/04 14:51:52;;;;;;;;;;;16.20;63.90;;;;;;10338430;28;90381;-65
2022/12/04 14:57:01;;;;;;;;;;;16.10;64.00;;;;;;10338589;28;88537;-65
2022/12/04 15:02:03;;;;;;;;;;;16.00;64.00;;;;;;10337495;28;88491;-65
2022/12/04 15:07:05;;;;;;;;;;;16.10;64.00;;;;;;10338299;28;89148;-65
2022/12/04 15:12:32;;;;;;;;;;;16.20;63.90;;;;;;10338661;28;88318;-65
2022/12/04 15:17:34;;;;;;;;;;;16.30;63.60;;;;;;10337248;28;89315;-65
2022/12/04 15:22:35;;;;;;;;;;;16.30;63.50;;;;;;10336531;28;89054;-65
2022/12/04 15:27:37;;;;;;;;;;;16.30;63.40;;;;;;10336846;28;90701;-65
2022/12/04 15:32:39;;;;;;;;;;;16.30;63.40;;;;;;10337324;28;88967;-66
2022/12/04 15:37:41;;;;;;;;;;;16.20;63.40;;;;;;10319474;28;89998;-64
2022/12/04 15:42:43;;;;;;;;;;;16.20;63.50;;;;;;10336213;28;88229;-65
2022/12/04 15:47:44;;;;;;;;;;;16.10;63.50;;;;;;10336636;28;89728;-65
2022/12/04 15:52:56;;;;;;;;;;;16.10;63.60;;;;;;10336742;28;89409;-65
2022/12/04 15:57:59;;;;;;;;;;;16.20;63.50;;;;;;10336121;28;89026;-65
2022/12/04 16:03:04;;;;;;;;;;;16.20;63.50;;;;;;10338009;28;89150;-65
2022/12/04 16:08:23;;;;;;;;;;;16.20;63.40;;;;;;10318521;28;89169;-66
2022/12/04 16:13:26;;;;;;;;;;;16.20;63.40;;;;;;10318815;28;89813;-65
2022/12/04 16:18:28;;;;;;;;;;;16.20;64.40;;;;;;10335629;28;89485;-65
2022/12/04 16:23:30;;;;;;;;;;;16.40;64.20;;;;;;10336505;28;88745;-65
2022/12/04 16:28:32;;;;;;;;;;;16.60;62.80;;;;;;10335730;28;90024;-67
2022/12/04 16:33:34;;;;;;;;;;;16.90;62.40;;;;;;10336272;28;88279;-66
2022/12/04 16:38:36;;;;;;;;;;;17.20;61.80;;;;;;10335632;28;89766;-65
2022/12/04 16:43:37;;;;;;;;;;;17.40;61.20;;;;;;10317970;28;90271;-65
2022/12/04 16:48:42;;;;;;;;;;;17.50;60.90;;;;;;10335909;28;88894;-66
2022/12/04 16:53:44;;;;;;;;;;;17.60;60.70;;;;;;10336085;28;88886;-66
2022/12/04 16:58:46;;;;;;;;;;;17.60;61.60;;;;;;10334585;28;89051;-66
2022/12/04 17:03:48;;;;;;;;;;;17.60;60.50;;;;;;10316735;28;88831;-66
2022/12/04 17:08:50;;;;;;;;;;;17.60;60.60;;;;;;10332953;28;89079;-66
2022/12/04 17:13:51;;;;;;;;;;;17.60;60.50;;;;;;10334448;28;90397;-66
2022/12/04 17:18:53;;;;;;;;;;;17.70;60.50;;;;;;10335299;28;89040;-65
2022/12/04 17:23:55;;;;;;;;;;;17.90;60.20;;;;;;10333256;28;89117;-66
2022/12/04 17:28:57;;;;;;;;;;;18.00;59.90;;;;;;10333109;28;89076;-66
2022/12/04 17:33:58;;;;;;;;;;;18.10;59.60;;;;;;10334183;28;90050;-66
2022/12/04 17:39:00;;;;;;;;;;;18.10;59.50;;;;;;10333715;28;89127;-66
2022/12/04 17:44:03;;;;;;;;;;;18.00;59.50;;;;;;10334435;28;88348;-65
2022/12/04 17:49:04;;;;;;;;;;;17.90;59.60;;;;;;10333584;28;89696;-65
2022/12/04 17:54:08;;;;;;;;;;;17.80;59.80;;;;;;10315859;28;89496;-65
2022/12/04 17:59:10;;;;;;;;;;;17.80;59.90;;;;;;10332017;28;89752;-64
2022/12/04 18:04:12;;;;;;;;;;;17.80;60.10;;;;;;10315016;28;89017;-64
2022/12/04 18:09:15;;;;;;;;;;;17.90;60.10;;;;;;10333408;28;89868;-65
2022/12/04 18:14:20;;;;;;;;;;;17.90;60.10;;;;;;10333389;28;89079;-65
2022/12/04 18:19:24;;;;;;;;;;;17.90;60.10;;;;;;10314709;28;89001;-65
2022/12/04 18:24:25;;;;;;;;;;;17.90;60.10;;;;;;10339173;28;89072;-65
2022/12/04 18:29:27;;;;;;;;;;;17.90;60.10;;;;;;10339002;28;89183;-65
2022/12/04 18:34:29;;;;;;;;;;;17.90;60.10;;;;;;10340395;28;89071;-65
2022/12/04 18:39:31;;;;;;;;;;;17.80;60.20;;;;;;10305055;28;88873;-65
2022/12/04 18:44:33;;;;;;;;;;;17.80;60.40;;;;;;10339535;28;89842;-65
2022/12/04 18:49:35;;;;;;;;;;;17.60;60.60;;;;;;10338339;28;90950;-65
2022/12/04 18:54:37;;;;;;;;;;;17.50;60.80;;;;;;10338595;28;89042;-65
2022/12/04 18:59:38;;;;;;;;;;;17.40;61.00;;;;;;10321004;28;90040;-65
2022/12/04 19:04:40;;;;;;;;;;;17.30;61.30;;;;;;10338014;28;89063;-66
2022/12/04 19:09:42;;;;;;;;;;;17.10;61.50;;;;;;10338739;28;89081;-65
2022/12/04 19:15:04;;;;;;;;;;;17.10;61.80;;;;;;10338530;28;89411;-65
2022/12/04 19:20:06;;;;;;;;;;;17.00;62.10;;;;;;10338238;28;90341;-65
2022/12/04 19:25:07;;;;;;;;;;;16.90;62.10;;;;;;10339315;28;88195;-65
2022/12/04 19:30:09;;;;;;;;;;;16.80;62.30;;;;;;10337248;28;90143;-64
2022/12/04 19:35:11;;;;;;;;;;;16.70;62.40;;;;;;10338032;28;89990;-66
2022/12/04 19:40:13;;;;;;;;;;;16.70;62.70;;;;;;10337232;28;89552;-65
2022/12/04 19:45:15;;;;;;;;;;;16.60;62.80;;;;;;10338327;28;91498;-65
2022/12/04 19:50:17;;;;;;;;;;;16.50;63.10;;;;;;10338080;28;89185;-65
2022/12/04 19:55:19;;;;;;;;;;;16.50;63.10;;;;;;10336912;28;89707;-65
2022/12/04 20:00:20;;;;;;;;;;;16.60;63.10;;;;;;10336636;28;90094;-65
2022/12/04 20:05:22;;;;;;;;;;;16.70;62.90;;;;;;10336203;28;89181;-65
2022/12/04 20:10:24;;;;;;;;;;;16.80;62.70;;;;;;10336526;28;89047;-65
2022/12/04 20:15:26;;;;;;;;;;;17.00;62.50;;;;;;10336846;28;87928;-65
2022/12/04 20:20:27;;;;;;;;;;;17.20;62.10;;;;;;10336596;28;90053;-65
2022/12/04 20:25:29;;;;;;;;;;;17.40;61.70;;;;;;10318506;28;90182;-65
2022/12/04 20:30:32;;;;;;;;;;;17.40;61.50;;;;;;10316992;28;90361;-65
2022/12/04 20:35:34;;;;;;;;;;;17.40;61.40;;;;;;10336093;28;89740;-65
2022/12/04 20:40:36;;;;;;;;;;;17.30;61.60;;;;;;10316917;28;88092;-65
2022/12/04 20:45:37;;;;;;;;;;;17.30;61.60;;;;;;10334828;28;88870;-65
2022/12/04 20:50:44;;;;;;;;;;;17.20;61.90;;;;;;10335009;28;90043;-65
2022/12/04 20:55:53;;;;;;;;;;;17.00;62.00;;;;;;10335484;28;89777;-65
2022/12/04 21:00:55;;;;;;;;;;;17.00;62.40;;;;;;10334580;28;89369;-65
2022/12/04 21:05:57;;;;;;;;;;;16.90;62.60;;;;;;10316740;28;88272;-65
2022/12/04 21:10:59;;;;;;;;;;;16.80;62.60;;;;;;10334074;28;89173;-65
2022/12/04 21:16:02;;;;;;;;;;;16.70;62.50;;;;;;10316730;28;88975;-66
2022/12/04 21:21:04;;;;;;;;;;;16.70;62.60;;;;;;10335072;28;90594;-65
2022/12/04 21:26:05;;;;;;;;;;;16.60;62.60;;;;;;10335512;28;88270;-65
2022/12/04 21:31:07;;;;;;;;;;;16.60;62.70;;;;;;10334718;28;90027;-65
2022/12/04 21:36:09;;;;;;;;;;;16.50;62.80;;;;;;10316935;28;90060;-65
2022/12/04 21:42:28;;;;;;;;;;;16.40;62.80;;;;;;10334362;28;90148;-65
2022/12/04 21:46:35;;;;;;;;;;;16.40;62.80;;;;;;10333478;28;89045;-65
2022/12/04 21:51:37;;;;;;;;;;;16.30;62.80;;;;;;10333593;28;89857;-65
2022/12/04 21:56:59;;;;;;;;;;;16.30;62.80;;;;;;10333301;28;88127;-65
2022/12/04 22:02:01;;;;;;;;;;;16.30;62.90;;;;;;10299680;28;90235;-65
2022/12/04 22:07:03;;;;;;;;;;;16.20;62.90;;;;;;10331734;28;89125;-65
2022/12/04 22:12:05;;;;;;;;;;;16.20;62.90;;;;;;10332509;28;90824;-65
2022/12/04 22:17:28;;;;;;;;;;;16.10;62.90;;;;;;10333614;28;91307;-65
2022/12/04 22:22:30;;;;;;;;;;;16.10;63.10;;;;;;10315583;28;88997;-65
2022/12/04 22:27:32;;;;;;;;;;;16.00;63.00;;;;;;10333441;28;90195;-65
2022/12/04 22:32:34;;;;;;;;;;;16.00;63.00;;;;;;10314337;28;89636;-65
2022/12/04 22:37:36;;;;;;;;;;;16.00;63.00;;;;;;10332830;28;90052;-65
2022/12/04 22:42:44;;;;;;;;;;;15.90;63.00;;;;;;10331629;28;89415;-66
2022/12/04 22:47:46;;;;;;;;;;;15.90;63.10;;;;;;10333258;28;87859;-65
2022/12/04 22:52:48;;;;;;;;;;;15.90;63.10;;;;;;10297751;28;89880;-66
2022/12/04 22:57:50;;;;;;;;;;;15.80;63.10;;;;;;10331217;28;90160;-65
2022/12/04 23:02:51;;;;;;;;;;;15.80;63.20;;;;;;10329830;28;90330;-65
2022/12/04 23:07:54;;;;;;;;;;;15.80;63.30;;;;;;10333205;28;88116;-65
2022/12/04 23:12:56;;;;;;;;;;;15.80;63.60;;;;;;10321482;28;89430;-65
2022/12/04 23:17:57;;;;;;;;;;;15.80;63.20;;;;;;10339042;28;90363;-66
2022/12/04 23:22:59;;;;;;;;;;;15.80;63.30;;;;;;10338678;28;89478;-65
2022/12/04 23:28:01;;;;;;;;;;;15.80;63.30;;;;;;10304145;28;88810;-65
2022/12/04 23:33:03;;;;;;;;;;;15.80;63.30;;;;;;10337757;28;89078;-66
2022/12/04 23:38:05;;;;;;;;;;;15.80;63.20;;;;;;10338817;28;88348;-65
2022/12/04 23:43:06;;;;;;;;;;;15.80;63.20;;;;;;10338305;28;88743;-66
2022/12/04 23:48:08;;;;;;;;;;;15.80;63.20;;;;;;10337741;28;88410;-65
2022/12/04 23:53:11;;;;;;;;;;;15.80;63.20;;;;;;10337080;28;91061;-65
2022/12/04 23:58:13;;;;;;;;;;;15.80;63.30;;;;;;10337489;28;88490;-66
